リヴァプール の空港の天気 - METARとTAF

リバプール・ジョン・レノン空港 ( EGGP / LPL ) - イギリス リヴァプール
飛行場実況気象(Metar)
観測時間02/21 15:50 GMT (02/21 15:50 UTC)
風向・風速南西 11m/s 瞬間風速16m/s
視程10km以上
天気現象
全天の8割程度の雲 雲底高度 670m
全天を覆う雲 雲底高度 730m
気温10℃
湿度82%
気圧1012hPa
METAREGGP 211550Z 22022G32KT 9999 BKN022 OVC024 10/07 Q1012
過去の天気等 Google飛行場航空写真 Wunderground天気予報

過去48時間のMETAR

飛行場予報(TAF)
発表時間: 2/21 12:34 GMT (2/21 12:34 UTC)
予報対象時間: 21日12時 GMT ~ 22日12時 GMT
風向・風速南西 8m/s
視程10km以上
少しの雲 雲底高度 460m
全天の4割程度の雲 雲底高度 910m
21日12時 GMT ~ 21日18時 GMT に一時的に
風向・風速南西 11m/s 瞬間風速 17m/s
21日12時 GMT ~ 21日21時 GMT に 確率 30% で一時的に
視程8000m
天気現象
21日21時 GMT ~ 21日23時 GMT に徐々に
風向・風速西南西 10m/s 瞬間風速 16m/s
22日2時 GMT ~ 22日5時 GMT に一時的に
風向・風速西南西 13m/s 瞬間風速 22m/s
視程3000m
天気現象強いしゅう雨
全天の8割程度の雲 雲底高度 300m
22日5時 GMT ~ 22日9時 GMT に一時的に
風向・風速西南西 7m/s
22日5時 GMT ~ 22日12時 GMT に一時的に
視程6000m
天気現象しゅう雨
TAF AMD EGGP 211234Z 2112/2212 22015KT 9999 FEW015 SCT030
TEMPO 2112/2118 22022G34KT
PROB30 TEMPO 2112/2121 8000 RA
BECMG 2121/2123 24020G32KT
TEMPO 2202/2205 25025G42KT 3000 +SHRA BKN010
TEMPO 2205/2209 25013KT
TEMPO 2205/2212 6000 SHRA